createdAt,value
2019-01-28T00:02:52.233Z,51.43
2019-01-28T00:08:11.031Z,49.67
2019-01-28T00:13:29.660Z,50.40
2019-01-28T00:18:48.371Z,60.60
2019-01-28T00:24:07.016Z,72.80
2019-01-28T00:29:25.565Z,64.10
2019-01-28T00:34:44.351Z,104.63
2019-01-28T00:40:03.025Z,112.77
2019-01-28T00:45:22.008Z,110.33
2019-01-28T00:50:40.330Z,110.87
2019-01-28T00:55:59.430Z,112.40
2019-01-28T01:01:18.512Z,119.50
2019-01-28T01:06:37.547Z,114.70
2019-01-28T01:11:55.930Z,125.43
2019-01-28T01:17:15.294Z,135.93
2019-01-28T01:22:33.753Z,131.17
2019-01-28T01:27:53.280Z,132.77
2019-01-28T01:33:12.190Z,127.10
2019-01-28T01:38:31.627Z,135.90
2019-01-28T01:43:50.246Z,128.97
2019-01-28T01:49:09.231Z,123.07
2019-01-28T01:54:28.390Z,124.17
2019-01-28T01:59:47.507Z,126.03
2019-01-28T02:05:05.939Z,127.43
2019-01-28T02:10:24.911Z,123.77
2019-01-28T02:15:43.994Z,134.63
2019-01-28T02:21:02.751Z,147.90
2019-01-28T02:26:21.881Z,135.37
2019-01-28T02:31:41.593Z,125.10
2019-01-28T02:37:01.745Z,140.73
2019-01-28T02:42:21.026Z,129.73
2019-01-28T02:47:39.730Z,134.90
2019-01-28T02:52:59.071Z,134.57
2019-01-28T02:58:17.690Z,126.33
2019-01-28T03:03:36.509Z,133.77
2019-01-28T03:08:56.140Z,138.87
2019-01-28T03:14:14.830Z,142.63
2019-01-28T03:19:33.741Z,135.10
2019-01-28T03:24:52.274Z,138.03
2019-01-28T03:30:12.204Z,131.83
2019-01-28T03:35:32.231Z,136.57
2019-01-28T03:40:51.106Z,136.03
2019-01-28T03:46:09.856Z,150.57
2019-01-28T03:51:28.169Z,142.57
2019-01-28T03:56:46.831Z,142.93
2019-01-28T04:02:06.104Z,140.07
2019-01-28T04:07:25.506Z,115.87
2019-01-28T04:12:43.911Z,84.60
2019-01-28T04:18:02.489Z,81.63
2019-01-28T04:23:21.265Z,39.53
2019-01-28T04:28:40.681Z,39.00
2019-01-28T04:33:58.950Z,25.37
2019-01-28T04:39:18.184Z,23.77
2019-01-28T04:44:37.350Z,8.63
2019-01-28T04:49:57.331Z,3.63
2019-01-28T04:55:15.897Z,2.83
2019-01-28T05:00:34.971Z,1.90
2019-01-28T05:05:54.485Z,2.10
2019-01-28T05:11:13.047Z,1.20
2019-01-28T05:16:31.587Z,1.10
2019-01-28T05:21:50.228Z,1.03
2019-01-28T05:27:09.241Z,1.10
2019-01-28T05:32:27.506Z,1.30
2019-01-28T05:37:46.050Z,1.00
2019-01-28T05:43:07.288Z,1.07
2019-01-28T05:48:25.985Z,1.00
2019-01-28T05:53:45.143Z,2.40
2019-01-28T05:59:04.254Z,1.37
2019-01-28T06:04:23.226Z,1.43
2019-01-28T06:09:42.154Z,1.63
2019-01-28T06:15:01.592Z,1.50
2019-01-28T06:20:20.618Z,1.50
2019-01-28T06:25:39.597Z,1.50
2019-01-28T06:30:58.501Z,1.53
2019-01-28T06:36:16.893Z,3.53
2019-01-28T06:41:35.930Z,2.57
2019-01-28T06:46:54.858Z,2.20
2019-01-28T06:52:13.249Z,1.90
2019-01-28T06:57:31.989Z,2.47
2019-01-28T07:02:50.611Z,2.30
2019-01-28T07:08:09.669Z,2.80
2019-01-28T07:13:28.406Z,2.90
2019-01-28T07:18:47.414Z,2.77
2019-01-28T07:24:06.305Z,2.30
2019-01-28T07:29:25.550Z,2.97
2019-01-28T07:34:45.100Z,2.63
2019-01-28T07:40:04.467Z,4.53
2019-01-28T07:45:23.890Z,2.80
2019-01-28T07:50:42.690Z,6.40
2019-01-28T07:56:01.926Z,2.40
2019-01-28T08:01:21.481Z,3.33
2019-01-28T08:06:41.092Z,128.10
2019-01-28T08:12:00.553Z,22.57
2019-01-28T08:17:19.187Z,38.93
2019-01-28T08:22:38.302Z,16.50
2019-01-28T08:27:57.058Z,2.97
2019-01-28T08:33:16.544Z,2.83
2019-01-28T08:38:35.543Z,28.27
2019-01-28T08:43:54.394Z,5.53
2019-01-28T08:49:13.079Z,9.23
2019-01-28T08:54:31.739Z,4.97
2019-01-28T08:59:50.678Z,30.03
2019-01-28T09:05:09.367Z,3.03
2019-01-28T09:10:27.843Z,2.10
2019-01-28T09:15:47.190Z,1.43
2019-01-28T09:21:05.763Z,47.63
2019-01-28T09:26:24.735Z,2.03
2019-01-28T09:31:43.192Z,29.27
2019-01-28T09:37:02.799Z,2.07
2019-01-28T09:42:21.798Z,1.17
2019-01-28T09:47:41.242Z,1.27
2019-01-28T09:53:00.030Z,3.43
2019-01-28T09:58:19.584Z,2.07
2019-01-28T10:03:37.939Z,2.53
2019-01-28T10:08:57.227Z,1.60
2019-01-28T10:14:15.823Z,4.37
2019-01-28T10:19:34.634Z,5.10
2019-01-28T10:24:53.534Z,8.10
2019-01-28T10:30:12.842Z,5.03
2019-01-28T10:35:31.636Z,6.70
2019-01-28T10:40:50.222Z,1.47
2019-01-28T10:46:09.346Z,1.70
2019-01-28T10:51:28.415Z,0.90
2019-01-28T10:56:47.042Z,1.50
2019-01-28T11:02:05.679Z,1.87
2019-01-28T11:07:24.262Z,8.37
2019-01-28T11:12:43.512Z,3.00
2019-01-28T11:18:02.753Z,5.30
2019-01-28T11:23:21.425Z,1.20
2019-01-28T11:28:39.955Z,12.13
2019-01-28T11:33:58.674Z,2.13
2019-01-28T11:39:17.875Z,83.57
2019-01-28T11:44:36.217Z,1.13
2019-01-28T11:49:54.818Z,8.43
2019-01-28T11:55:13.575Z,6.70
2019-01-28T12:00:35.365Z,8.67
2019-01-28T12:05:53.899Z,10.23
2019-01-28T12:11:12.494Z,122.73
2019-01-28T12:16:31.180Z,2.07
2019-01-28T12:21:50.240Z,1.17
2019-01-28T12:27:09.299Z,2.53
2019-01-28T12:32:28.484Z,1.47
2019-01-28T12:37:46.706Z,87.73
2019-01-28T12:43:05.603Z,4.40
2019-01-28T12:48:24.330Z,29.90
2019-01-28T12:53:43.300Z,3.37
2019-01-28T12:59:08.988Z,2.43
2019-01-28T13:04:21.618Z,1.13
2019-01-28T13:09:40.325Z,3.13
2019-01-28T13:14:59.200Z,2.20
2019-01-28T13:20:18.387Z,2.57
2019-01-28T13:25:37.079Z,2.67
2019-01-28T13:30:55.719Z,3.53
2019-01-28T13:36:14.343Z,1.40
2019-01-28T13:41:33.389Z,3.43
2019-01-28T13:46:52.734Z,1.57
2019-01-28T13:52:11.424Z,1.23
2019-01-28T13:57:30.459Z,1.10
2019-01-28T14:02:49.839Z,1.20
2019-01-28T14:08:08.726Z,1.30
2019-01-28T14:13:28.537Z,1.40
2019-01-28T14:18:47.017Z,1.73
2019-01-28T14:24:05.987Z,1.50
2019-01-28T14:29:24.744Z,1.63
2019-01-28T14:34:43.970Z,1.50
2019-01-28T14:40:02.594Z,3.43
2019-01-28T14:45:21.481Z,1.70
2019-01-28T14:50:40.838Z,3.20
2019-01-28T14:55:59.439Z,2.20
2019-01-28T15:01:18.590Z,2.00
2019-01-28T15:06:37.458Z,2.60
2019-01-28T15:11:56.363Z,1.80
2019-01-28T15:17:17.083Z,3.03
2019-01-28T15:22:35.458Z,1.57
2019-01-28T15:27:54.269Z,4.67
2019-01-28T15:33:12.813Z,3.07
2019-01-28T15:38:31.629Z,3.63
2019-01-28T15:43:50.084Z,3.27
2019-01-28T15:49:08.686Z,3.47
2019-01-28T15:54:27.712Z,1.50
2019-01-28T15:59:47.489Z,1.57
2019-01-28T16:05:07.452Z,1.13
2019-01-28T16:10:27.343Z,0.87
2019-01-28T16:15:46.983Z,1.63
2019-01-28T16:21:07.517Z,1.57
2019-01-28T16:26:26.362Z,2.67
2019-01-28T16:31:45.500Z,3.17
2019-01-28T16:37:04.557Z,1.43
2019-01-28T16:42:24.383Z,2.10
2019-01-28T16:47:43.547Z,2.53
2019-01-28T16:53:03.403Z,68.47
2019-01-28T16:58:22.710Z,54.40
2019-01-28T17:03:41.474Z,149.27
2019-01-28T17:09:03.835Z,7.63
2019-01-28T17:14:22.121Z,5.73
2019-01-28T17:19:41.412Z,43.47
2019-01-28T17:25:00.158Z,102.80
2019-01-28T17:30:21.630Z,8.27
2019-01-28T17:35:40.572Z,9.10
2019-01-28T17:40:59.524Z,43.90
2019-01-28T17:46:19.908Z,35.20
2019-01-28T17:51:38.484Z,39.93
2019-01-28T17:56:57.903Z,66.23
2019-01-28T18:02:21.183Z,387.13
2019-01-28T18:07:40.104Z,58.87
2019-01-28T18:12:58.779Z,84.40
2019-01-28T18:18:17.485Z,35.70
2019-01-28T18:23:47.892Z,18.23
2019-01-28T18:29:06.604Z,2.23
2019-01-28T18:34:25.840Z,9.23
2019-01-28T18:39:44.983Z,5.00
2019-01-28T18:45:04.876Z,1.70
2019-01-28T18:50:27.632Z,3.70
2019-01-28T18:55:47.064Z,11.43
2019-01-28T19:01:06.205Z,4.07
2019-01-28T19:06:43.171Z,49.07
2019-01-28T19:12:17.183Z,29.37
2019-01-28T19:17:53.823Z,7.30
2019-01-28T19:23:12.804Z,23.93
2019-01-28T19:28:34.375Z,79.23
2019-01-28T19:33:53.279Z,51.77
2019-01-28T19:39:13.441Z,24.27
2019-01-28T19:44:36.452Z,65.53
2019-01-28T19:49:55.498Z,88.27
2019-01-28T19:55:15.763Z,12.60
2019-01-28T20:00:35.845Z,45.53
2019-01-28T20:05:55.247Z,12.40
2019-01-28T20:11:14.907Z,26.00
2019-01-28T20:16:33.649Z,89.60
2019-01-28T20:21:54.799Z,33.53
2019-01-28T20:27:13.696Z,7.77
2019-01-28T20:32:32.747Z,19.97
2019-01-28T20:37:51.699Z,3.87
2019-01-28T20:43:10.703Z,6.03
2019-01-28T20:48:30.594Z,0.83
2019-01-28T20:53:49.015Z,0.80
2019-01-28T20:59:08.065Z,6.87
2019-01-28T21:04:26.902Z,2.90
2019-01-28T21:09:45.977Z,15.37
2019-01-28T21:15:05.608Z,2.03
2019-01-28T21:20:24.725Z,55.47
2019-01-28T21:25:46.092Z,63.93
2019-01-28T21:31:04.503Z,32.90
2019-01-28T21:36:51.843Z,28.07
2019-01-28T21:42:10.762Z,6.03
2019-01-28T21:47:29.663Z,1.13
2019-01-28T21:52:48.938Z,3.83
2019-01-28T21:58:13.974Z,1.03
2019-01-28T22:03:32.726Z,63.63
2019-01-28T22:08:51.729Z,10.63
2019-01-28T22:14:11.004Z,1.23
2019-01-28T22:19:29.821Z,0.80
2019-01-28T22:24:49.672Z,1.80
2019-01-28T22:30:16.584Z,9.77
2019-01-28T22:35:36.086Z,1.10
2019-01-28T22:40:54.886Z,1.57
2019-01-28T22:46:13.843Z,20.13
2019-01-28T22:51:32.243Z,1.47
2019-01-28T22:56:51.109Z,0.97
2019-01-28T23:02:10.076Z,1.10
2019-01-28T23:07:28.948Z,1.60
2019-01-28T23:12:48.460Z,1.17
2019-01-28T23:18:06.712Z,2.17
2019-01-28T23:23:26.539Z,1.80
2019-01-28T23:28:45.360Z,1.30
2019-01-28T23:34:03.803Z,2.00
2019-01-28T23:39:23.342Z,2.83
2019-01-28T23:44:42.288Z,1.20
2019-01-28T23:50:01.074Z,1.20
2019-01-28T23:55:19.783Z,1.63
